createdAt,value
2018-04-19T00:00:08.477Z,10.03
2018-04-19T00:01:08.402Z,9.97
2018-04-19T00:02:08.333Z,10.00
2018-04-19T00:03:08.252Z,9.88
2018-04-19T00:04:08.182Z,9.88
2018-04-19T00:05:08.098Z,9.90
2018-04-19T00:06:08.024Z,9.83
2018-04-19T00:07:07.952Z,9.68
2018-04-19T00:08:07.872Z,9.58
2018-04-19T00:09:08.408Z,9.53
2018-04-19T00:10:07.724Z,9.46
2018-04-19T00:11:07.645Z,9.35
2018-04-19T00:12:07.570Z,9.32
2018-04-19T00:13:07.493Z,9.27
2018-04-19T00:14:07.424Z,9.28
2018-04-19T00:15:07.340Z,9.19
2018-04-19T00:19:49.618Z,9.17
2018-04-19T00:20:49.533Z,9.19
2018-04-19T00:21:49.447Z,9.16
2018-04-19T00:22:49.378Z,9.03
2018-04-19T00:23:49.295Z,9.10
2018-04-19T00:24:50.225Z,9.03
2018-04-19T00:25:49.141Z,9.06
2018-04-19T00:26:49.070Z,9.03
2018-04-19T00:27:48.994Z,9.05
2018-04-19T00:28:48.924Z,9.05
2018-04-19T00:29:48.839Z,9.10
2018-04-19T00:30:48.772Z,9.17
2018-04-19T00:31:48.685Z,9.24
2018-04-19T00:32:48.615Z,9.19
2018-04-19T00:33:48.538Z,9.25
2018-04-19T00:34:48.462Z,9.14
2018-04-19T00:35:48.384Z,9.24
2018-04-19T00:36:48.316Z,9.29
2018-04-19T00:37:48.228Z,9.38
2018-04-19T00:38:48.156Z,9.40
2018-04-19T00:39:48.073Z,9.42
2018-04-19T00:40:48.007Z,9.34
2018-04-19T00:41:47.923Z,9.35
2018-04-19T00:42:47.854Z,9.29
2018-04-19T00:43:47.770Z,9.14
2018-04-19T00:44:47.707Z,9.22
2018-04-19T00:45:47.614Z,9.19
2018-04-19T00:46:47.548Z,9.05
2018-04-19T00:47:47.465Z,9.03
2018-04-19T00:48:47.395Z,8.91
2018-04-19T00:49:47.325Z,8.84
2018-04-19T00:50:47.245Z,8.80
2018-04-19T00:51:47.168Z,8.76
2018-04-19T00:52:47.093Z,8.65
2018-04-19T00:53:47.011Z,8.62
2018-04-19T00:54:46.937Z,8.66
2018-04-19T00:55:46.856Z,8.52
2018-04-19T00:56:47.784Z,8.55
2018-04-19T00:57:46.705Z,8.43
2018-04-19T00:58:46.635Z,8.34
2018-04-19T00:59:46.545Z,8.36
2018-04-19T01:00:46.487Z,8.39
2018-04-19T01:01:46.397Z,8.32
2018-04-19T01:02:46.330Z,8.39
2018-04-19T01:03:46.241Z,8.42
2018-04-19T01:04:46.173Z,8.42
2018-04-19T01:05:46.093Z,8.42
2018-04-19T01:06:46.026Z,8.58
2018-04-19T01:07:45.939Z,8.60
2018-04-19T01:08:45.865Z,8.65
2018-04-19T01:09:45.788Z,8.73
2018-04-19T01:10:45.712Z,8.77
2018-04-19T01:11:45.629Z,8.79
2018-04-19T01:12:45.565Z,8.77
2018-04-19T01:13:45.477Z,8.79
2018-04-19T01:14:45.406Z,8.87
2018-04-19T01:15:45.323Z,8.90
2018-04-19T01:16:45.255Z,8.84
2018-04-19T01:17:45.172Z,8.80
2018-04-19T01:18:45.097Z,8.77
2018-04-19T01:19:45.017Z,8.85
2018-04-19T01:20:44.947Z,8.87
2018-04-19T01:21:44.870Z,8.77
2018-04-19T01:22:44.794Z,8.76
2018-04-19T01:23:44.709Z,8.65
2018-04-19T01:24:44.643Z,8.60
2018-04-19T01:25:44.556Z,8.42
2018-04-19T01:26:44.489Z,8.39
2018-04-19T01:27:44.404Z,8.34
2018-04-19T01:28:44.342Z,8.27
2018-04-19T01:29:44.248Z,8.32
2018-04-19T01:30:44.184Z,8.24
2018-04-19T01:31:44.099Z,8.25
2018-04-19T01:32:44.033Z,8.25
2018-04-19T01:33:43.949Z,8.24
2018-04-19T01:34:43.877Z,8.22
2018-04-19T01:35:43.789Z,8.33
2018-04-19T01:36:43.722Z,8.39
2018-04-19T01:37:43.633Z,8.40
2018-04-19T01:38:43.635Z,8.40
2018-04-19T01:39:43.486Z,8.50
2018-04-19T01:40:43.421Z,8.40
2018-04-19T01:41:43.332Z,8.48
2018-04-19T01:42:43.262Z,8.52
2018-04-19T01:43:43.179Z,8.47
2018-04-19T01:44:43.106Z,8.39
2018-04-19T01:45:43.031Z,8.30
2018-04-19T01:46:42.955Z,8.33
2018-04-19T01:47:42.863Z,8.24
2018-04-19T01:48:42.799Z,8.24
2018-04-19T01:49:42.721Z,8.25
2018-04-19T01:50:42.644Z,8.25
2018-04-19T01:51:42.562Z,8.29
2018-04-19T01:52:42.500Z,8.27
2018-04-19T01:53:42.408Z,8.25
2018-04-19T01:54:42.339Z,8.25
2018-04-19T01:55:42.257Z,8.25
2018-04-19T01:56:42.186Z,8.21
2018-04-19T01:57:42.102Z,8.21
2018-04-19T01:58:42.028Z,8.15
2018-04-19T01:59:41.947Z,7.99
2018-04-19T02:00:41.879Z,7.96
2018-04-19T02:01:41.798Z,7.88
2018-04-19T02:02:41.726Z,7.85
2018-04-19T02:03:41.637Z,7.90
2018-04-19T02:04:41.569Z,7.94
2018-04-19T02:05:41.488Z,7.94
2018-04-19T02:06:41.421Z,8.03
2018-04-19T02:07:41.333Z,8.00
2018-04-19T02:08:41.259Z,7.99
2018-04-19T02:09:41.179Z,8.01
2018-04-19T02:10:41.109Z,8.03
2018-04-19T02:11:41.027Z,8.04
2018-04-19T02:12:40.966Z,8.00
2018-04-19T02:13:40.870Z,8.00
2018-04-19T02:14:40.803Z,7.97
2018-04-19T02:15:40.713Z,7.91
2018-04-19T02:16:40.647Z,8.00
2018-04-19T02:17:40.564Z,7.99
2018-04-19T02:18:40.494Z,8.06
2018-04-19T02:19:40.412Z,8.09
2018-04-19T02:20:40.339Z,8.12
2018-04-19T02:21:40.251Z,8.11
2018-04-19T02:22:40.183Z,8.07
2018-04-19T02:23:40.097Z,8.04
2018-04-19T02:24:40.028Z,8.04
2018-04-19T02:25:39.944Z,7.91
2018-04-19T02:26:39.877Z,7.93
2018-04-19T02:27:39.793Z,7.78
2018-04-19T02:28:39.720Z,7.79
2018-04-19T02:29:39.638Z,7.63
2018-04-19T02:30:39.566Z,7.56
2018-04-19T02:31:39.479Z,7.37
2018-04-19T02:32:39.412Z,7.42
2018-04-19T02:33:39.333Z,7.35
2018-04-19T02:34:39.255Z,7.30
2018-04-19T02:35:39.191Z,7.34
2018-04-19T02:36:39.105Z,7.38
2018-04-19T02:37:39.024Z,7.37
2018-04-19T02:38:38.951Z,7.34
2018-04-19T02:39:38.862Z,7.42
2018-04-19T02:40:38.796Z,7.42
2018-04-19T02:41:38.711Z,7.60
2018-04-19T02:42:38.641Z,7.59
2018-04-19T02:43:38.553Z,7.56
2018-04-19T02:44:38.485Z,7.55
2018-04-19T02:45:38.400Z,7.67
2018-04-19T02:46:38.331Z,7.68
2018-04-19T02:47:38.249Z,7.73
2018-04-19T02:48:38.175Z,7.73
2018-04-19T02:49:38.093Z,7.73
2018-04-19T02:50:38.018Z,7.82
2018-04-19T02:51:37.936Z,7.81
2018-04-19T02:52:37.871Z,7.93
2018-04-19T02:53:37.782Z,7.85
2018-04-19T02:54:38.709Z,7.91
2018-04-19T02:55:37.626Z,7.99
2018-04-19T02:56:37.559Z,7.99
2018-04-19T02:57:37.475Z,8.00
2018-04-19T02:58:37.402Z,8.01
2018-04-19T02:59:37.311Z,7.97
2018-04-19T03:00:37.247Z,7.99
2018-04-19T03:01:37.163Z,8.06
2018-04-19T03:02:37.087Z,7.99
2018-04-19T03:03:37.017Z,7.94
2018-04-19T03:04:36.938Z,7.83
2018-04-19T03:05:36.863Z,7.70
2018-04-19T03:06:36.788Z,7.64
2018-04-19T03:07:36.699Z,7.53
2018-04-19T03:08:36.632Z,7.41
2018-04-19T03:09:36.548Z,7.30
2018-04-19T03:10:36.474Z,7.30
2018-04-19T03:11:36.394Z,7.24
2018-04-19T03:12:36.320Z,7.16
2018-04-19T03:13:36.236Z,7.17
2018-04-19T03:14:36.167Z,7.19
2018-04-19T03:15:36.080Z,7.16
2018-04-19T03:16:36.012Z,7.17
2018-04-19T03:17:35.928Z,7.16
2018-04-19T03:18:35.854Z,7.19
2018-04-19T03:19:35.769Z,7.20
2018-04-19T03:20:35.719Z,7.16
2018-04-19T03:21:35.613Z,7.12
2018-04-19T03:22:35.546Z,7.12
2018-04-19T03:23:35.457Z,7.16
2018-04-19T03:24:35.390Z,7.20
2018-04-19T03:25:35.303Z,7.08
2018-04-19T03:26:35.231Z,7.06
2018-04-19T03:27:35.149Z,7.03
2018-04-19T03:28:35.085Z,6.94
2018-04-19T03:29:34.996Z,6.98
2018-04-19T03:30:34.932Z,6.90
2018-04-19T03:31:34.840Z,6.93
2018-04-19T03:32:34.774Z,6.93
2018-04-19T03:33:34.686Z,6.78
2018-04-19T03:34:34.616Z,6.83
2018-04-19T03:35:34.532Z,6.90
2018-04-19T03:36:34.459Z,6.87
2018-04-19T03:37:34.376Z,6.90
2018-04-19T03:38:34.311Z,6.93
2018-04-19T03:39:34.224Z,6.87
2018-04-19T03:40:34.154Z,6.91
2018-04-19T03:41:34.064Z,6.96
2018-04-19T03:42:33.993Z,6.96
2018-04-19T03:43:33.909Z,7.01
2018-04-19T03:44:33.844Z,7.06
2018-04-19T03:45:33.758Z,7.16
2018-04-19T03:46:33.684Z,7.12
2018-04-19T03:47:33.600Z,7.06
2018-04-19T03:48:33.573Z,7.13
2018-04-19T03:49:33.443Z,7.17
2018-04-19T03:50:33.375Z,7.17
2018-04-19T03:51:33.288Z,7.08
2018-04-19T03:52:33.223Z,7.11
2018-04-19T03:53:33.132Z,7.17
2018-04-19T03:54:33.061Z,7.05
2018-04-19T03:55:32.979Z,7.12
2018-04-19T03:56:32.908Z,6.99
2018-04-19T03:57:32.822Z,7.01
2018-04-19T03:58:32.751Z,7.03
2018-04-19T03:59:32.670Z,6.91
2018-04-19T04:00:32.594Z,6.99
2018-04-19T04:01:32.515Z,6.96
2018-04-19T04:02:32.442Z,6.96
2018-04-19T04:03:32.357Z,6.98
2018-04-19T04:04:32.288Z,6.94
2018-04-19T04:05:32.199Z,7.05
2018-04-19T04:06:32.131Z,7.12
2018-04-19T04:07:32.047Z,7.05
2018-04-19T04:08:31.979Z,7.11
2018-04-19T04:09:31.894Z,7.13
2018-04-19T04:10:31.820Z,7.13
2018-04-19T04:11:31.733Z,7.23
2018-04-19T04:12:31.670Z,7.17
2018-04-19T04:13:31.583Z,7.17
2018-04-19T04:14:31.510Z,7.13
2018-04-19T04:15:31.435Z,7.16
2018-04-19T04:16:31.357Z,7.16
2018-04-19T04:17:31.287Z,7.17
2018-04-19T04:18:31.199Z,7.21
2018-04-19T04:19:31.126Z,7.20
2018-04-19T04:20:31.069Z,7.05
2018-04-19T04:21:30.958Z,7.06
2018-04-19T04:22:30.884Z,7.05
2018-04-19T04:23:30.804Z,7.16
2018-04-19T04:24:30.733Z,7.11
2018-04-19T04:25:30.645Z,7.06
2018-04-19T04:26:30.602Z,7.13
2018-04-19T04:27:30.494Z,7.09
2018-04-19T04:28:30.418Z,7.03
2018-04-19T04:29:30.336Z,7.02
2018-04-19T04:30:30.269Z,7.11
2018-04-19T04:31:30.179Z,6.94
2018-04-19T04:32:30.107Z,7.06
2018-04-19T04:33:30.030Z,6.94
2018-04-19T04:34:29.951Z,6.96
2018-04-19T04:35:29.871Z,7.01
2018-04-19T04:36:29.804Z,6.91
2018-04-19T04:37:29.712Z,6.91
2018-04-19T04:38:29.647Z,7.02
2018-04-19T04:39:29.556Z,6.93
2018-04-19T04:40:29.490Z,6.98
2018-04-19T04:41:29.401Z,6.91
2018-04-19T04:42:29.330Z,6.81
2018-04-19T04:43:29.254Z,6.73
2018-04-19T04:44:29.177Z,6.68
2018-04-19T04:45:29.090Z,6.65
2018-04-19T04:46:29.023Z,6.72
2018-04-19T04:47:28.933Z,6.68
2018-04-19T04:48:28.861Z,6.63
2018-04-19T04:49:28.780Z,6.62
2018-04-19T04:50:28.710Z,6.63
2018-04-19T04:51:28.623Z,6.69
2018-04-19T04:52:28.558Z,6.65
2018-04-19T04:53:28.473Z,6.66
2018-04-19T04:54:28.470Z,6.62
2018-04-19T04:55:28.311Z,6.70
2018-04-19T04:56:28.277Z,6.75
2018-04-19T04:57:28.164Z,6.72
2018-04-19T04:58:28.189Z,6.81
2018-04-19T04:59:28.001Z,6.84
2018-04-19T05:00:27.998Z,6.83
2018-04-19T05:01:27.843Z,6.78
2018-04-19T05:02:27.805Z,6.78
2018-04-19T05:03:27.688Z,6.91
2018-04-19T05:04:27.618Z,6.91
2018-04-19T05:05:27.529Z,6.90
2018-04-19T05:06:27.524Z,6.94
2018-04-19T05:07:27.374Z,6.94
2018-04-19T05:08:27.335Z,6.94
2018-04-19T05:09:27.217Z,7.05
2018-04-19T05:10:27.247Z,7.05
2018-04-19T05:11:27.059Z,7.05
2018-04-19T05:12:27.049Z,7.16
2018-04-19T05:13:26.909Z,7.16
2018-04-19T05:14:26.895Z,7.23
2018-04-19T05:15:26.753Z,7.29
2018-04-19T05:16:26.768Z,7.39
2018-04-19T05:17:26.593Z,7.44
2018-04-19T05:18:26.527Z,7.39
2018-04-19T05:19:26.439Z,7.42
2018-04-19T05:20:26.436Z,7.49
2018-04-19T05:21:26.284Z,7.56
2018-04-19T05:22:26.302Z,7.53
2018-04-19T05:23:26.127Z,7.60
2018-04-19T05:24:26.107Z,7.64
2018-04-19T05:25:25.973Z,7.67
2018-04-19T05:26:25.913Z,7.72
2018-04-19T05:27:25.820Z,7.68
2018-04-19T05:28:25.828Z,7.73
2018-04-19T05:29:25.666Z,7.67
2018-04-19T05:30:25.634Z,7.79
2018-04-19T05:31:25.504Z,7.82
2018-04-19T05:32:25.543Z,7.93
2018-04-19T05:33:25.351Z,7.88
2018-04-19T05:34:25.350Z,7.93
2018-04-19T05:35:25.195Z,7.93
2018-04-19T05:36:25.161Z,7.96
2018-04-19T05:37:25.039Z,7.99
2018-04-19T05:38:25.074Z,8.04
2018-04-19T05:39:24.885Z,8.06
2018-04-19T05:40:24.877Z,8.19
2018-04-19T05:41:24.729Z,8.11
2018-04-19T05:42:24.690Z,8.14
2018-04-19T05:43:24.569Z,8.11
2018-04-19T05:44:24.594Z,8.18
2018-04-19T05:45:24.417Z,8.18
2018-04-19T05:46:24.406Z,8.27
2018-04-19T05:47:24.268Z,8.24
2018-04-19T05:48:24.216Z,8.29
2018-04-19T05:49:24.107Z,8.21
2018-04-19T05:50:24.122Z,8.22
2018-04-19T05:51:23.951Z,8.30
2018-04-19T05:52:23.934Z,8.36
2018-04-19T05:53:23.795Z,8.37
2018-04-19T05:54:23.748Z,8.44
2018-04-19T05:55:23.644Z,8.51
2018-04-19T05:56:23.656Z,8.47
2018-04-19T05:57:23.484Z,8.52
2018-04-19T05:58:23.462Z,8.60
2018-04-19T05:59:23.329Z,8.66
2018-04-19T06:00:23.372Z,8.62
2018-04-19T06:01:23.176Z,8.65
2018-04-19T06:02:23.181Z,8.76
2018-04-19T06:03:23.022Z,8.76
2018-04-19T06:04:22.990Z,8.80
2018-04-19T06:05:22.868Z,8.84
2018-04-19T06:06:22.923Z,8.79
2018-04-19T06:07:22.716Z,8.93
2018-04-19T06:08:22.708Z,8.88
2018-04-19T06:09:22.559Z,8.93
2018-04-19T06:10:22.513Z,9.02
2018-04-19T06:11:22.401Z,9.06
2018-04-19T06:12:22.432Z,9.14
2018-04-19T06:13:22.250Z,9.24
2018-04-19T06:14:22.234Z,9.29
2018-04-19T06:15:22.096Z,9.16
2018-04-19T06:16:22.048Z,9.38
2018-04-19T06:17:21.943Z,9.40
2018-04-19T06:18:21.955Z,9.49
2018-04-19T06:19:21.790Z,9.52
2018-04-19T06:20:21.768Z,9.61
2018-04-19T06:21:21.628Z,9.70
2018-04-19T06:22:21.569Z,9.70
2018-04-19T06:23:21.479Z,9.78
2018-04-19T06:24:21.483Z,9.98
2018-04-19T06:25:21.327Z,9.97
2018-04-19T06:26:21.290Z,10.18
2018-04-19T06:27:21.171Z,10.18
2018-04-19T06:28:21.206Z,10.29
2018-04-19T06:29:21.014Z,10.25
2018-04-19T06:30:21.026Z,10.23
2018-04-19T06:31:20.861Z,10.40
2018-04-19T06:32:20.821Z,10.55
2018-04-19T06:33:20.712Z,10.55
2018-04-19T06:34:20.729Z,10.60
2018-04-19T06:35:20.552Z,10.73
2018-04-19T06:36:20.536Z,10.73
2018-04-19T06:37:20.403Z,10.77
2018-04-19T06:38:20.347Z,10.80
2018-04-19T06:39:20.247Z,10.92
2018-04-19T06:40:20.264Z,10.99
2018-04-19T06:41:20.095Z,11.00
2018-04-19T06:42:20.065Z,11.02
2018-04-19T06:43:19.944Z,11.11
2018-04-19T06:44:19.976Z,11.14
2018-04-19T06:45:19.788Z,11.17
2018-04-19T06:46:19.782Z,11.34
2018-04-19T06:47:19.640Z,11.38
2018-04-19T06:48:19.594Z,11.43
2018-04-19T06:49:19.480Z,11.49
2018-04-19T06:50:19.503Z,11.57
2018-04-19T06:51:19.358Z,11.60
2018-04-19T06:52:19.314Z,11.68
2018-04-19T06:53:19.181Z,11.84
2018-04-19T06:54:19.123Z,11.95
2018-04-19T06:55:19.023Z,12.02
2018-04-19T06:56:19.031Z,12.24
2018-04-19T06:57:18.872Z,12.31
2018-04-19T06:58:18.839Z,12.46
2018-04-19T06:59:18.722Z,12.59
2018-04-19T07:00:18.752Z,12.60
2018-04-19T07:01:18.569Z,12.74
2018-04-19T07:02:18.563Z,12.86
2018-04-19T07:03:18.430Z,13.06
2018-04-19T07:04:18.368Z,13.11
2018-04-19T07:05:18.268Z,13.22
2018-04-19T07:06:18.280Z,13.45
2018-04-19T07:07:18.116Z,13.52
2018-04-19T07:08:18.086Z,13.63
2018-04-19T07:09:17.963Z,13.76
2018-04-19T07:10:17.997Z,13.84
2018-04-19T07:11:17.813Z,13.99
2018-04-19T07:12:17.803Z,14.07
2018-04-19T07:13:17.666Z,14.17
2018-04-19T07:14:17.613Z,14.31
2018-04-19T07:15:17.513Z,14.31
2018-04-19T07:16:17.530Z,14.36
2018-04-19T07:17:17.357Z,14.46
2018-04-19T07:18:17.338Z,14.44
2018-04-19T07:19:17.207Z,14.52
2018-04-19T07:20:17.250Z,14.61
2018-04-19T07:21:17.058Z,14.61
2018-04-19T07:22:17.059Z,14.67
2018-04-19T07:23:16.904Z,14.80
2018-04-19T07:24:16.866Z,14.84
2018-04-19T07:25:16.762Z,14.95
2018-04-19T07:26:16.777Z,15.01
2018-04-19T07:27:16.603Z,15.16
2018-04-19T07:28:16.578Z,15.30
2018-04-19T07:29:16.464Z,15.38
2018-04-19T07:30:16.493Z,15.51
2018-04-19T07:31:16.312Z,15.64
2018-04-19T07:32:16.342Z,15.70
2018-04-19T07:33:16.162Z,15.79
2018-04-19T07:34:16.109Z,15.89
2018-04-19T07:35:16.013Z,16.07
2018-04-19T07:36:16.030Z,16.08
2018-04-19T07:37:15.865Z,16.30
2018-04-19T07:38:15.828Z,16.33
2018-04-19T07:39:15.715Z,16.35
2018-04-19T07:40:15.738Z,16.57
2018-04-19T07:41:15.571Z,16.66
2018-04-19T07:42:15.547Z,16.77
2018-04-19T07:43:15.419Z,16.85
2018-04-19T07:44:15.459Z,16.99
2018-04-19T07:45:15.273Z,16.99
2018-04-19T07:46:15.268Z,17.18
2018-04-19T07:47:15.128Z,17.17
2018-04-19T07:48:15.075Z,17.30
2018-04-19T07:49:14.980Z,17.54
2018-04-19T07:50:14.988Z,17.67
2018-04-19T07:51:14.835Z,17.67
2018-04-19T07:52:14.804Z,17.79
2018-04-19T07:53:14.685Z,17.87
2018-04-19T07:54:14.706Z,18.09
2018-04-19T07:55:14.543Z,18.13
2018-04-19T07:56:14.516Z,18.16
2018-04-19T07:57:14.399Z,18.32
2018-04-19T07:58:14.424Z,18.43
2018-04-19T07:59:14.254Z,18.49
2018-04-19T08:00:14.232Z,18.58
2018-04-19T08:01:14.111Z,18.61
2018-04-19T08:02:14.142Z,18.68
2018-04-19T08:03:13.963Z,18.80
2018-04-19T08:04:13.954Z,18.90
2018-04-19T08:05:13.840Z,18.98
2018-04-19T08:06:13.763Z,19.05
2018-04-19T08:07:13.675Z,19.20
2018-04-19T08:08:13.678Z,19.31
2018-04-19T08:09:13.532Z,19.27
2018-04-19T08:10:13.481Z,19.43
2018-04-19T08:11:13.449Z,19.48
2018-04-19T08:12:13.392Z,19.61
2018-04-19T08:13:13.244Z,19.72
2018-04-19T08:14:13.202Z,19.68
2018-04-19T08:15:13.105Z,19.83
2018-04-19T08:16:13.112Z,19.91
2018-04-19T08:17:12.966Z,19.98
2018-04-19T08:18:12.922Z,20.05
2018-04-19T08:19:12.818Z,20.15
2018-04-19T08:20:12.836Z,20.20
2018-04-19T08:21:12.677Z,20.24
2018-04-19T08:22:12.643Z,20.46
2018-04-19T08:23:12.534Z,20.43
2018-04-19T08:24:12.555Z,20.56
2018-04-19T08:25:12.397Z,20.61
2018-04-19T08:26:12.364Z,20.74
2018-04-19T08:27:12.253Z,20.69
2018-04-19T08:28:12.269Z,20.89
2018-04-19T08:29:12.112Z,20.93
2018-04-19T08:30:12.078Z,20.98
2018-04-19T08:31:11.973Z,21.11
2018-04-19T08:32:11.997Z,21.09
2018-04-19T08:33:11.832Z,21.35
2018-04-19T08:34:11.801Z,21.38
2018-04-19T08:35:11.736Z,21.42
2018-04-19T08:36:11.708Z,21.49
2018-04-19T08:37:11.555Z,21.38
2018-04-19T08:38:11.521Z,21.31
2018-04-19T08:39:11.415Z,21.42
2018-04-19T08:40:11.429Z,21.48
2018-04-19T08:41:11.278Z,21.61
2018-04-19T08:42:11.238Z,21.72
2018-04-19T08:43:11.144Z,21.81
2018-04-19T08:44:11.151Z,21.76
2018-04-19T08:45:11.005Z,21.70
2018-04-19T08:46:10.955Z,21.78
2018-04-19T08:47:10.864Z,21.89
2018-04-19T08:48:10.868Z,22.01
2018-04-19T08:49:10.731Z,22.01
2018-04-19T08:50:10.681Z,21.95
2018-04-19T08:51:10.589Z,22.10
2018-04-19T08:52:10.592Z,22.12
2018-04-19T08:53:10.461Z,22.17
2018-04-19T08:54:10.497Z,22.19
2018-04-19T08:55:10.314Z,22.15
2018-04-19T08:56:10.306Z,22.23
2018-04-19T08:57:10.176Z,22.16
2018-04-19T08:58:10.215Z,22.19
2018-04-19T08:59:10.040Z,22.32
2018-04-19T09:00:10.022Z,22.35
2018-04-19T09:01:09.903Z,22.50
2018-04-19T09:02:09.932Z,22.42
2018-04-19T09:03:09.772Z,22.50
2018-04-19T09:04:09.743Z,22.52
2018-04-19T09:05:09.633Z,22.56
2018-04-19T09:06:09.657Z,22.53
2018-04-19T09:07:09.497Z,22.71
2018-04-19T09:08:09.465Z,22.63
2018-04-19T09:09:09.359Z,22.63
2018-04-19T09:10:09.371Z,22.78
2018-04-19T09:11:09.222Z,22.81
2018-04-19T09:12:09.184Z,22.83
2018-04-19T09:13:09.090Z,22.90
2018-04-19T09:14:09.092Z,23.00
2018-04-19T09:15:08.954Z,23.04
2018-04-19T09:16:08.901Z,23.09
2018-04-19T09:17:08.822Z,23.17
2018-04-19T09:18:08.813Z,23.15
2018-04-19T09:19:08.683Z,23.22
2018-04-19T09:20:08.724Z,23.29
2018-04-19T09:21:08.549Z,23.35
2018-04-19T09:22:08.532Z,23.35
2018-04-19T09:23:08.411Z,23.38
2018-04-19T09:24:08.444Z,23.46
2018-04-19T09:25:08.274Z,23.46
2018-04-19T09:26:08.259Z,23.45
2018-04-19T09:27:08.149Z,23.45
2018-04-19T09:28:08.166Z,23.46
2018-04-19T09:29:08.013Z,23.46
2018-04-19T09:30:07.970Z,23.58
2018-04-19T09:31:07.877Z,23.55
2018-04-19T09:32:07.883Z,23.60
2018-04-19T09:33:07.743Z,23.67
2018-04-19T09:34:07.823Z,23.71
2018-04-19T09:35:07.607Z,23.63
2018-04-19T09:36:07.609Z,23.64
2018-04-19T09:37:07.475Z,23.75
2018-04-19T09:38:07.514Z,23.75
2018-04-19T09:39:07.342Z,23.80
2018-04-19T09:40:07.321Z,23.65
2018-04-19T09:41:07.212Z,23.71
2018-04-19T09:42:07.232Z,23.74
2018-04-19T09:43:07.075Z,23.85
2018-04-19T09:44:07.041Z,23.64
2018-04-19T09:45:06.943Z,23.53
2018-04-19T09:46:06.954Z,23.53
2018-04-19T09:47:06.813Z,23.53
2018-04-19T09:48:06.761Z,23.60
2018-04-19T09:49:06.680Z,23.75
2018-04-19T09:50:06.675Z,23.93
2018-04-19T09:51:06.544Z,24.04
2018-04-19T09:52:06.582Z,24.00
2018-04-19T09:53:06.413Z,24.12
2018-04-19T09:54:06.462Z,24.11
2018-04-19T09:55:06.278Z,24.16
2018-04-19T09:56:06.302Z,24.26
2018-04-19T09:57:06.145Z,24.34
2018-04-19T09:58:06.108Z,24.41
2018-04-19T09:59:06.017Z,24.56
2018-04-19T10:00:06.023Z,24.56
2018-04-19T10:01:05.883Z,24.50
2018-04-19T10:02:05.930Z,24.50
2018-04-19T10:03:05.752Z,24.71
2018-04-19T10:04:05.743Z,24.86
2018-04-19T10:05:05.618Z,24.88
2018-04-19T10:06:05.653Z,24.91
2018-04-19T10:07:05.489Z,24.97
2018-04-19T10:08:05.461Z,24.78
2018-04-19T10:09:05.360Z,24.63
2018-04-19T10:10:05.369Z,24.48
2018-04-19T10:11:05.232Z,24.42
2018-04-19T10:12:05.180Z,24.48
2018-04-19T10:13:05.097Z,24.60
2018-04-19T10:14:05.091Z,24.47
2018-04-19T10:15:04.965Z,24.63
2018-04-19T10:16:05.094Z,24.66
2018-04-19T10:17:04.835Z,24.80
2018-04-19T10:18:04.809Z,25.04
2018-04-19T10:19:04.707Z,25.04
2018-04-19T10:20:04.722Z,25.16
2018-04-19T10:21:04.577Z,25.05
2018-04-19T10:22:04.532Z,25.01
2018-04-19T10:23:04.446Z,25.00
2018-04-19T10:24:04.445Z,25.01
2018-04-19T10:25:04.316Z,24.97
2018-04-19T10:26:04.353Z,24.90
2018-04-19T10:27:04.186Z,24.93
2018-04-19T10:28:04.161Z,25.05
2018-04-19T10:29:04.055Z,24.91
2018-04-19T10:30:04.070Z,25.02
2018-04-19T10:31:03.926Z,25.01
2018-04-19T10:32:03.881Z,25.08
2018-04-19T10:33:03.794Z,25.04
2018-04-19T10:34:03.792Z,25.04
2018-04-19T10:35:03.664Z,25.05
2018-04-19T10:36:03.704Z,25.27
2018-04-19T10:37:03.539Z,25.16
2018-04-19T10:38:03.516Z,25.13
2018-04-19T10:39:03.406Z,24.95
2018-04-19T10:40:03.423Z,25.05
2018-04-19T10:41:03.281Z,25.05
2018-04-19T10:42:03.230Z,25.09
2018-04-19T10:43:03.148Z,25.17
2018-04-19T10:44:03.144Z,25.27
2018-04-19T10:45:03.021Z,25.27
2018-04-19T10:46:03.053Z,25.40
2018-04-19T10:47:02.893Z,25.42
2018-04-19T10:48:03.890Z,25.49
2018-04-19T10:49:02.758Z,25.60
2018-04-19T10:50:03.800Z,25.65
2018-04-19T10:51:02.637Z,25.64
2018-04-19T10:52:03.608Z,25.62
2018-04-19T10:53:02.505Z,25.59
2018-04-19T10:54:02.495Z,25.62
2018-04-19T10:55:02.373Z,25.71
2018-04-19T10:56:02.406Z,25.59
2018-04-19T10:57:02.247Z,25.68
2018-04-19T10:58:02.214Z,25.83
2018-04-19T10:59:02.124Z,25.70
2018-04-19T11:00:02.129Z,25.62
2018-04-19T11:01:02.040Z,25.42
2018-04-19T11:02:02.036Z,25.42
2018-04-19T11:03:01.857Z,25.46
2018-04-19T11:04:01.843Z,25.40
2018-04-19T11:05:01.732Z,25.35
2018-04-19T11:06:01.751Z,25.45
2018-04-19T11:07:01.602Z,25.53
2018-04-19T11:08:01.563Z,25.47
2018-04-19T11:09:01.482Z,25.64
2018-04-19T11:10:01.470Z,25.60
2018-04-19T11:11:01.341Z,25.67
2018-04-19T11:12:01.382Z,25.67
2018-04-19T11:13:01.219Z,25.72
2018-04-19T11:14:01.192Z,25.84
2018-04-19T11:15:01.090Z,25.79
2018-04-19T11:16:01.143Z,25.77
2018-04-19T11:17:00.963Z,25.75
2018-04-19T11:18:00.911Z,25.78
2018-04-19T11:19:00.834Z,25.82
2018-04-19T11:20:00.823Z,25.84
2018-04-19T11:21:00.704Z,25.86
2018-04-19T11:22:00.734Z,25.93
2018-04-19T11:23:00.578Z,26.02
2018-04-19T11:24:00.541Z,26.05
2018-04-19T11:25:00.447Z,26.12
2018-04-19T11:26:00.454Z,26.08
2018-04-19T11:27:00.318Z,25.93
2018-04-19T11:28:00.368Z,25.93
2018-04-19T11:29:00.191Z,25.92
2018-04-19T11:30:00.170Z,25.89
2018-04-19T11:31:00.102Z,25.89
2018-04-19T11:32:00.086Z,25.97
2018-04-19T11:32:59.941Z,25.92
2018-04-19T11:33:59.899Z,26.01
2018-04-19T11:34:59.808Z,26.07
2018-04-19T11:35:59.745Z,26.15
2018-04-19T11:36:59.716Z,26.20
2018-04-19T11:37:59.616Z,26.11
2018-04-19T11:38:59.628Z,26.02
2018-04-19T11:39:59.487Z,26.07
2018-04-19T11:40:59.538Z,25.97
2018-04-19T11:41:59.360Z,25.96
2018-04-19T11:42:59.347Z,26.11
2018-04-19T11:43:59.236Z,26.05
2018-04-19T11:44:59.261Z,26.11
2018-04-19T11:45:59.106Z,26.23
2018-04-19T11:46:59.069Z,26.16
2018-04-19T11:47:59.003Z,26.12
2018-04-19T11:48:58.979Z,26.07
2018-04-19T11:49:58.853Z,26.08
2018-04-19T11:50:58.890Z,26.18
2018-04-19T11:51:58.727Z,26.24
2018-04-19T11:52:58.701Z,26.24
2018-04-19T11:53:58.600Z,26.35
2018-04-19T11:54:58.608Z,26.24
2018-04-19T11:55:58.473Z,26.25
2018-04-19T11:56:58.527Z,26.32
2018-04-19T11:57:58.350Z,26.31
2018-04-19T11:58:58.317Z,26.34
2018-04-19T11:59:58.221Z,26.18
2018-04-19T12:00:58.239Z,26.24
2018-04-19T12:01:58.095Z,26.40
2018-04-19T12:02:58.141Z,26.32
2018-04-19T12:03:57.971Z,26.32
2018-04-19T12:04:57.949Z,26.28
2018-04-19T12:05:57.841Z,26.30
2018-04-19T12:06:57.858Z,26.32
2018-04-19T12:07:57.713Z,26.32
2018-04-19T12:08:57.668Z,26.38
2018-04-19T12:09:57.587Z,26.49
2018-04-19T12:10:57.580Z,26.60
2018-04-19T12:11:57.459Z,26.53
2018-04-19T12:12:57.493Z,26.39
2018-04-19T12:13:57.331Z,26.40
2018-04-19T12:14:57.306Z,26.46
2018-04-19T12:15:57.211Z,26.35
2018-04-19T12:16:57.211Z,26.32
2018-04-19T12:17:57.080Z,26.32
2018-04-19T12:18:57.122Z,26.24
2018-04-19T12:19:56.956Z,26.07
2018-04-19T12:20:56.930Z,25.94
2018-04-19T12:21:56.828Z,25.97
2018-04-19T12:22:56.773Z,26.05
2018-04-19T12:23:56.704Z,26.01
2018-04-19T12:24:56.746Z,26.18
2018-04-19T12:25:56.578Z,26.25
2018-04-19T12:26:56.560Z,26.24
2018-04-19T12:27:56.448Z,26.16
2018-04-19T12:28:56.395Z,26.11
2018-04-19T12:29:56.323Z,26.16
2018-04-19T12:30:56.267Z,26.23
2018-04-19T12:31:56.197Z,26.23
2018-04-19T12:32:56.191Z,26.12
2018-04-19T12:33:56.069Z,26.16
2018-04-19T12:34:56.101Z,26.09
2018-04-19T12:35:55.945Z,26.18
2018-04-19T12:36:55.912Z,26.16
2018-04-19T12:37:55.815Z,26.09
2018-04-19T12:38:55.825Z,26.01
2018-04-19T12:39:55.691Z,26.04
2018-04-19T12:40:55.731Z,25.92
2018-04-19T12:41:55.566Z,25.93
2018-04-19T12:42:55.543Z,26.05
2018-04-19T12:43:55.441Z,26.12
2018-04-19T12:44:55.451Z,26.18
2018-04-19T12:45:55.313Z,26.30
2018-04-19T12:46:55.364Z,26.35
2018-04-19T12:47:55.186Z,26.39
2018-04-19T12:48:55.177Z,26.46
2018-04-19T12:49:55.059Z,26.32
2018-04-19T12:50:55.082Z,26.23
2018-04-19T12:51:54.936Z,26.30
2018-04-19T12:52:54.893Z,26.09
2018-04-19T12:53:54.805Z,26.23
2018-04-19T12:54:54.802Z,26.27
2018-04-19T12:55:54.685Z,26.32
2018-04-19T12:56:54.710Z,26.27
2018-04-19T12:57:54.550Z,26.32
2018-04-19T12:58:54.521Z,26.45
2018-04-19T12:59:54.427Z,26.46
2018-04-19T13:00:54.432Z,26.58
2018-04-19T13:01:54.301Z,26.60
2018-04-19T13:02:54.247Z,26.65
2018-04-19T13:03:54.176Z,26.75
2018-04-19T13:04:54.156Z,26.68
2018-04-19T13:05:54.046Z,26.79
2018-04-19T13:06:54.060Z,26.76